createdAt,value
2018-05-29T00:00:36.940Z,1010.09
2018-05-29T00:01:36.932Z,1010.06
2018-05-29T00:02:36.933Z,1010.06
2018-05-29T00:03:36.911Z,1010.04
2018-05-29T00:04:36.898Z,1010.05
2018-05-29T00:05:36.893Z,1010.05
2018-05-29T00:06:36.879Z,1010.01
2018-05-29T00:07:36.869Z,1010.01
2018-05-29T00:08:36.864Z,1010.00
2018-05-29T00:09:36.847Z,1009.99
2018-05-29T00:10:36.839Z,1009.94
2018-05-29T00:11:36.827Z,1009.95
2018-05-29T00:12:36.817Z,1009.90
2018-05-29T00:13:36.817Z,1009.90
2018-05-29T00:14:36.795Z,1009.92
2018-05-29T00:15:36.785Z,1009.90
2018-05-29T00:16:36.773Z,1009.86
2018-05-29T00:17:36.772Z,1009.86
2018-05-29T00:18:36.753Z,1009.88
2018-05-29T00:19:36.744Z,1009.83
2018-05-29T00:20:36.738Z,1009.85
2018-05-29T00:21:36.721Z,1009.82
2018-05-29T00:22:36.710Z,1009.82
2018-05-29T00:23:36.700Z,1009.80
2018-05-29T00:24:36.688Z,1009.79
2018-05-29T00:25:36.684Z,1009.74
2018-05-29T00:26:36.670Z,1009.72
2018-05-29T00:27:36.667Z,1009.69
2018-05-29T00:28:36.646Z,1009.70
2018-05-29T00:29:36.635Z,1009.72
2018-05-29T00:30:36.624Z,1009.68
2018-05-29T00:31:36.618Z,1009.66
2018-05-29T00:32:36.602Z,1009.70
2018-05-29T00:33:36.593Z,1009.68
2018-05-29T00:34:36.584Z,1009.72
2018-05-29T00:35:36.573Z,1009.74
2018-05-29T00:36:36.561Z,1009.71
2018-05-29T00:37:36.556Z,1009.70
2018-05-29T00:38:36.541Z,1009.75
2018-05-29T00:39:36.530Z,1009.72
2018-05-29T00:40:36.523Z,1009.74
2018-05-29T00:41:36.508Z,1009.73
2018-05-29T00:42:36.497Z,1009.72
2018-05-29T00:43:36.494Z,1009.71
2018-05-29T00:44:36.476Z,1009.71
2018-05-29T00:45:36.466Z,1009.67
2018-05-29T00:46:36.457Z,1009.66
2018-05-29T00:47:36.445Z,1009.69
2018-05-29T00:48:36.438Z,1009.69
2018-05-29T00:49:36.433Z,1009.68
2018-05-29T00:50:36.415Z,1009.64
2018-05-29T00:51:36.401Z,1009.66
2018-05-29T00:52:36.395Z,1009.66
2018-05-29T00:53:36.380Z,1009.63
2018-05-29T00:54:36.377Z,1009.69
2018-05-29T00:55:36.360Z,1009.63
2018-05-29T00:56:36.346Z,1009.67
2018-05-29T00:57:36.339Z,1009.64
2018-05-29T00:58:36.333Z,1009.64
2018-05-29T00:59:36.316Z,1009.68
2018-05-29T01:00:36.303Z,1009.68
2018-05-29T01:01:36.292Z,1009.69
2018-05-29T01:02:36.281Z,1009.66
2018-05-29T01:03:36.273Z,1009.67
2018-05-29T01:04:36.258Z,1009.68
2018-05-29T01:05:36.257Z,1009.66
2018-05-29T01:06:36.242Z,1009.61
2018-05-29T01:07:36.227Z,1009.66
2018-05-29T01:08:36.221Z,1009.66
2018-05-29T01:09:36.215Z,1009.67
2018-05-29T01:10:36.203Z,1009.71
2018-05-29T01:11:36.186Z,1009.71
2018-05-29T01:12:36.205Z,1009.70
2018-05-29T01:13:36.171Z,1009.73
2018-05-29T01:14:36.152Z,1009.71
2018-05-29T01:15:36.143Z,1009.72
2018-05-29T01:16:36.130Z,1009.67
2018-05-29T01:17:36.124Z,1009.69
2018-05-29T01:18:36.109Z,1009.67
2018-05-29T01:19:36.097Z,1009.69
2018-05-29T01:20:36.085Z,1009.67
2018-05-29T01:21:36.074Z,1009.65
2018-05-29T01:22:36.065Z,1009.66
2018-05-29T01:23:36.053Z,1009.63
2018-05-29T01:24:36.044Z,1009.66
2018-05-29T01:25:36.032Z,1009.62
2018-05-29T01:26:36.028Z,1009.62
2018-05-29T01:27:36.010Z,1009.63
2018-05-29T01:28:35.999Z,1009.68
2018-05-29T01:29:35.988Z,1009.66
2018-05-29T01:30:35.976Z,1009.65
2018-05-29T01:31:35.987Z,1009.66
2018-05-29T01:32:35.954Z,1009.63
2018-05-29T01:33:35.947Z,1009.64
2018-05-29T01:34:35.933Z,1009.62
2018-05-29T01:35:35.922Z,1009.57
2018-05-29T01:36:35.919Z,1009.58
2018-05-29T01:37:35.907Z,1009.53
2018-05-29T01:38:35.898Z,1009.55
2018-05-29T01:39:35.879Z,1009.54
2018-05-29T01:40:35.866Z,1009.53
2018-05-29T01:41:35.854Z,1009.53
2018-05-29T01:42:35.845Z,1009.51
2018-05-29T01:43:35.836Z,1009.48
2018-05-29T01:44:35.823Z,1009.49
2018-05-29T01:45:35.812Z,1009.48
2018-05-29T01:46:35.799Z,1009.46
2018-05-29T01:47:35.792Z,1009.47
2018-05-29T01:48:35.778Z,1009.47
2018-05-29T01:49:35.769Z,1009.44
2018-05-29T01:50:35.755Z,1009.47
2018-05-29T01:51:35.745Z,1009.44
2018-05-29T01:52:35.734Z,1009.48
2018-05-29T01:53:35.727Z,1009.46
2018-05-29T01:54:35.712Z,1009.49
2018-05-29T01:55:35.702Z,1009.45
2018-05-29T01:56:35.689Z,1009.45
2018-05-29T01:57:35.678Z,1009.45
2018-05-29T01:58:35.668Z,1009.42
2018-05-29T01:59:35.657Z,1009.43
2018-05-29T02:00:35.644Z,1009.43
2018-05-29T02:01:35.634Z,1009.40
2018-05-29T02:02:35.624Z,1009.39
2018-05-29T02:03:35.612Z,1009.37
2018-05-29T02:04:35.659Z,1009.36
2018-05-29T02:05:35.593Z,1009.36
2018-05-29T02:06:35.581Z,1009.37
2018-05-29T02:07:35.567Z,1009.32
2018-05-29T02:08:35.558Z,1009.33
2018-05-29T02:09:35.550Z,1009.32
2018-05-29T02:10:35.582Z,1009.31
2018-05-29T02:11:35.521Z,1009.32
2018-05-29T02:12:35.510Z,1009.31
2018-05-29T02:13:35.499Z,1009.33
2018-05-29T02:14:35.487Z,1009.33
2018-05-29T02:15:35.481Z,1009.34
2018-05-29T02:16:35.463Z,1009.30
2018-05-29T02:17:35.453Z,1009.30
2018-05-29T02:18:35.441Z,1009.31
2018-05-29T02:19:35.431Z,1009.32
2018-05-29T02:20:35.417Z,1009.28
2018-05-29T02:21:35.407Z,1009.32
2018-05-29T02:22:35.397Z,1009.26
2018-05-29T02:23:35.385Z,1009.32
2018-05-29T02:24:35.374Z,1009.35
2018-05-29T02:25:35.362Z,1009.34
2018-05-29T02:26:35.354Z,1009.30
2018-05-29T02:27:35.339Z,1009.32
2018-05-29T02:28:35.331Z,1009.30
2018-05-29T02:29:35.316Z,1009.32
2018-05-29T02:30:35.308Z,1009.28
2018-05-29T02:31:35.303Z,1009.29
2018-05-29T02:32:35.283Z,1009.29
2018-05-29T02:33:35.324Z,1009.30
2018-05-29T02:34:35.260Z,1009.25
2018-05-29T02:35:35.248Z,1009.27
2018-05-29T02:36:35.238Z,1009.23
2018-05-29T02:37:35.227Z,1009.24
2018-05-29T02:38:35.217Z,1009.24
2018-05-29T02:39:35.202Z,1009.26
2018-05-29T02:40:35.192Z,1009.23
2018-05-29T02:41:35.181Z,1009.26
2018-05-29T02:42:35.169Z,1009.21
2018-05-29T02:43:35.158Z,1009.17
2018-05-29T02:44:35.157Z,1009.23
2018-05-29T02:45:35.134Z,1009.22
2018-05-29T02:46:35.124Z,1009.22
2018-05-29T02:47:35.115Z,1009.18
2018-05-29T02:48:35.100Z,1009.20
2018-05-29T02:49:35.095Z,1009.20
2018-05-29T02:50:35.084Z,1009.18
2018-05-29T02:51:35.068Z,1009.20
2018-05-29T02:52:35.053Z,1009.17
2018-05-29T02:53:35.050Z,1009.19
2018-05-29T02:54:35.033Z,1009.15
2018-05-29T02:55:35.019Z,1009.15
2018-05-29T02:56:35.008Z,1009.16
2018-05-29T02:57:34.995Z,1009.08
2018-05-29T02:58:34.987Z,1009.10
2018-05-29T02:59:34.972Z,1009.11
2018-05-29T03:00:34.961Z,1009.09
2018-05-29T03:01:34.957Z,1009.07
2018-05-29T03:02:34.939Z,1009.09
2018-05-29T03:03:34.928Z,1009.10
2018-05-29T03:04:34.915Z,1009.06
2018-05-29T03:05:34.904Z,1009.12
2018-05-29T03:06:34.893Z,1009.12
2018-05-29T03:07:34.881Z,1009.11
2018-05-29T03:08:34.869Z,1009.13
2018-05-29T03:09:34.857Z,1009.11
2018-05-29T03:10:34.848Z,1009.09
2018-05-29T03:11:34.834Z,1009.12
2018-05-29T03:12:34.823Z,1009.16
2018-05-29T03:13:34.812Z,1009.14
2018-05-29T03:14:34.808Z,1009.08
2018-05-29T03:15:34.789Z,1009.11
2018-05-29T03:16:34.777Z,1009.08
2018-05-29T03:17:34.764Z,1009.06
2018-05-29T03:18:34.754Z,1009.08
2018-05-29T03:19:34.742Z,1009.08
2018-05-29T03:20:34.732Z,1009.12
2018-05-29T03:21:34.717Z,1009.08
2018-05-29T03:22:34.711Z,1009.07
2018-05-29T03:23:34.704Z,1009.03
2018-05-29T03:24:34.683Z,1009.05
2018-05-29T03:25:34.673Z,1009.03
2018-05-29T03:26:34.676Z,1009.04
2018-05-29T03:27:34.651Z,1009.00
2018-05-29T03:28:34.637Z,1009.00
2018-05-29T03:29:34.627Z,1009.00
2018-05-29T03:30:34.622Z,1008.97
2018-05-29T03:31:34.605Z,1008.93
2018-05-29T03:32:34.596Z,1008.95
2018-05-29T03:33:34.579Z,1008.93
2018-05-29T03:34:34.569Z,1008.93
2018-05-29T03:35:34.557Z,1008.94
2018-05-29T03:36:34.548Z,1008.93
2018-05-29T03:37:34.535Z,1008.90
2018-05-29T03:38:34.524Z,1008.96
2018-05-29T03:39:34.512Z,1008.96
2018-05-29T03:40:34.496Z,1008.98
2018-05-29T03:41:34.504Z,1008.95
2018-05-29T03:42:34.476Z,1008.97
2018-05-29T03:43:34.464Z,1008.99
2018-05-29T03:44:34.453Z,1008.88
2018-05-29T03:45:34.445Z,1008.90
2018-05-29T03:46:34.429Z,1008.93
2018-05-29T03:47:34.418Z,1008.90
2018-05-29T03:48:34.417Z,1008.90
2018-05-29T03:49:34.397Z,1008.93
2018-05-29T03:50:34.383Z,1008.92
2018-05-29T03:51:34.372Z,1008.90
2018-05-29T03:52:34.364Z,1008.95
2018-05-29T03:53:34.346Z,1008.96
2018-05-29T03:54:34.336Z,1009.00
2018-05-29T03:55:34.335Z,1009.04
2018-05-29T03:56:34.313Z,1009.05
2018-05-29T03:57:34.401Z,1009.03
2018-05-29T03:58:34.291Z,1009.05
2018-05-29T03:59:34.278Z,1009.06
2018-05-29T04:00:34.266Z,1009.07
2018-05-29T04:01:34.253Z,1009.09
2018-05-29T04:03:34.231Z,1009.07
2018-05-29T04:04:34.219Z,1009.07
2018-05-29T04:05:34.207Z,1009.05
2018-05-29T04:06:34.205Z,1009.03
2018-05-29T04:07:34.186Z,1009.03
2018-05-29T04:08:34.175Z,1009.02
2018-05-29T04:09:34.161Z,1009.04
2018-05-29T04:10:34.151Z,1009.03
2018-05-29T04:11:34.139Z,1009.03
2018-05-29T04:12:34.131Z,1009.08
2018-05-29T04:13:34.116Z,1009.05
2018-05-29T04:14:34.105Z,1009.08
2018-05-29T04:15:34.099Z,1009.05
2018-05-29T04:16:34.083Z,1009.08
2018-05-29T04:17:34.069Z,1009.10
2018-05-29T04:18:34.059Z,1009.08
2018-05-29T04:19:34.048Z,1009.04
2018-05-29T04:20:34.037Z,1009.04
2018-05-29T04:21:34.032Z,1009.07
2018-05-29T04:22:34.022Z,1009.02
2018-05-29T04:23:34.003Z,1009.01
2018-05-29T04:24:33.988Z,1009.00
2018-05-29T04:25:33.984Z,1009.02
2018-05-29T04:26:33.967Z,1009.01
2018-05-29T04:28:33.941Z,1009.01
2018-05-29T04:29:33.933Z,1009.01
2018-05-29T04:30:33.935Z,1009.02
2018-05-29T04:31:33.916Z,1009.05
2018-05-29T04:32:33.898Z,1009.04
2018-05-29T04:33:33.887Z,1009.09
2018-05-29T04:34:33.878Z,1009.10
2018-05-29T04:35:33.863Z,1009.07
2018-05-29T04:36:33.853Z,1009.09
2018-05-29T04:37:33.839Z,1009.08
2018-05-29T04:38:33.835Z,1009.11
2018-05-29T04:39:33.817Z,1009.07
2018-05-29T04:40:33.807Z,1009.08
2018-05-29T04:41:33.800Z,1009.06
2018-05-29T04:42:33.795Z,1009.05
2018-05-29T04:43:33.773Z,1009.09
2018-05-29T04:44:33.761Z,1009.10
2018-05-29T04:45:33.749Z,1009.10
2018-05-29T04:46:33.738Z,1009.13
2018-05-29T04:47:33.726Z,1009.17
2018-05-29T04:48:33.716Z,1009.10
2018-05-29T04:49:33.750Z,1009.13
2018-05-29T04:50:33.701Z,1009.12
2018-05-29T04:51:33.681Z,1009.08
2018-05-29T04:52:33.668Z,1009.05
2018-05-29T04:53:33.660Z,1009.07
2018-05-29T04:54:33.656Z,1009.07
2018-05-29T04:55:33.636Z,1009.04
2018-05-29T04:56:33.637Z,1009.03
2018-05-29T04:57:33.616Z,1009.03
2018-05-29T04:58:33.604Z,1009.01
2018-05-29T04:59:33.592Z,1008.99
2018-05-29T05:00:33.585Z,1009.00
2018-05-29T05:01:33.569Z,1008.99
2018-05-29T05:02:33.563Z,1009.00
2018-05-29T05:03:33.547Z,1009.00
2018-05-29T05:04:33.536Z,1008.98
2018-05-29T05:05:33.524Z,1009.00
2018-05-29T05:06:33.513Z,1008.99
2018-05-29T05:07:33.507Z,1009.07
2018-05-29T05:08:33.510Z,1009.02
2018-05-29T05:09:33.482Z,1009.04
2018-05-29T05:10:33.469Z,1009.02
2018-05-29T05:11:33.459Z,1009.06
2018-05-29T05:12:33.446Z,1009.06
2018-05-29T05:13:33.435Z,1009.05
2018-05-29T05:14:33.425Z,1009.08
2018-05-29T05:15:33.413Z,1009.05
2018-05-29T05:16:33.402Z,1009.00
2018-05-29T05:17:33.393Z,1009.04
2018-05-29T05:18:33.384Z,1009.00
2018-05-29T05:19:33.370Z,1009.00
2018-05-29T05:20:33.359Z,1009.03
2018-05-29T05:21:33.347Z,1008.93
2018-05-29T05:22:33.337Z,1008.94
2018-05-29T05:23:33.444Z,1008.93
2018-05-29T05:24:33.314Z,1008.94
2018-05-29T05:25:33.303Z,1008.98
2018-05-29T05:26:33.291Z,1008.98
2018-05-29T05:27:33.296Z,1009.04
2018-05-29T05:28:33.269Z,1009.03
2018-05-29T05:29:33.265Z,1009.04
2018-05-29T05:30:33.248Z,1009.00
2018-05-29T05:31:33.252Z,1009.04
2018-05-29T05:32:33.228Z,1009.08
2018-05-29T05:33:33.216Z,1009.03
2018-05-29T05:34:33.205Z,1009.29
2018-05-29T05:35:33.198Z,1009.84
2018-05-29T05:36:33.187Z,1010.23
2018-05-29T05:37:33.173Z,1010.32
2018-05-29T05:38:33.174Z,1010.26
2018-05-29T05:39:33.176Z,1010.22
2018-05-29T05:40:33.141Z,1010.34
2018-05-29T05:41:33.137Z,1010.47
2018-05-29T05:42:33.126Z,1010.43
2018-05-29T05:43:33.113Z,1010.44
2018-05-29T05:44:33.107Z,1010.66
2018-05-29T05:45:33.093Z,1010.46
2018-05-29T05:46:33.087Z,1009.96
2018-05-29T05:47:33.078Z,1009.76
2018-05-29T05:48:33.068Z,1009.80
2018-05-29T05:49:33.070Z,1009.74
2018-05-29T05:50:33.055Z,1009.74
2018-05-29T05:51:33.045Z,1009.74
2018-05-29T05:52:33.039Z,1009.67
2018-05-29T05:53:33.033Z,1009.70
2018-05-29T05:54:33.025Z,1009.67
2018-05-29T05:55:33.019Z,1009.62
2018-05-29T05:56:33.017Z,1009.61
2018-05-29T05:57:33.006Z,1009.64
2018-05-29T05:58:33.092Z,1009.59
2018-05-29T05:59:32.995Z,1009.55
2018-05-29T06:00:32.988Z,1009.57
2018-05-29T06:01:32.984Z,1009.60
2018-05-29T06:02:32.980Z,1009.55
2018-05-29T06:03:32.981Z,1009.59
2018-05-29T06:04:32.978Z,1009.59
2018-05-29T06:05:32.972Z,1009.65
2018-05-29T06:06:32.961Z,1009.68
2018-05-29T06:07:32.958Z,1009.67
2018-05-29T06:08:32.952Z,1009.71
2018-05-29T06:09:32.950Z,1009.71
2018-05-29T06:10:32.951Z,1009.68
2018-05-29T06:11:32.942Z,1009.66
2018-05-29T06:12:32.946Z,1009.66
2018-05-29T06:13:32.934Z,1009.64
2018-05-29T06:14:32.937Z,1009.62
2018-05-29T06:15:32.930Z,1009.57
2018-05-29T06:16:32.933Z,1009.58
2018-05-29T06:17:32.924Z,1009.54
2018-05-29T06:18:32.923Z,1009.58
2018-05-29T06:19:32.921Z,1009.53
2018-05-29T06:20:32.920Z,1009.51
2018-05-29T06:21:32.916Z,1009.54
2018-05-29T06:22:32.931Z,1009.51
2018-05-29T06:23:32.913Z,1009.57
2018-05-29T06:24:32.913Z,1009.57
2018-05-29T06:25:32.910Z,1009.53
2018-05-29T06:26:32.908Z,1009.55
2018-05-29T06:27:32.909Z,1009.57
2018-05-29T06:28:32.915Z,1009.59
2018-05-29T06:29:32.905Z,1009.62
2018-05-29T06:30:32.905Z,1009.59
2018-05-29T06:31:32.905Z,1009.60
2018-05-29T06:32:32.907Z,1009.55
2018-05-29T06:33:32.902Z,1009.52
2018-05-29T06:34:32.904Z,1009.45
2018-05-29T06:35:32.904Z,1009.47
2018-05-29T06:36:32.903Z,1009.41
2018-05-29T06:37:32.909Z,1009.40
2018-05-29T06:38:32.905Z,1009.44
2018-05-29T06:39:32.905Z,1009.44
2018-05-29T06:40:32.904Z,1009.43
2018-05-29T06:41:32.907Z,1009.43
2018-05-29T06:42:32.908Z,1009.44
2018-05-29T06:43:32.909Z,1009.42
2018-05-29T06:44:32.909Z,1009.44
2018-05-29T06:45:32.917Z,1009.45
2018-05-29T06:46:32.918Z,1009.42
2018-05-29T06:47:32.922Z,1009.46
2018-05-29T06:48:32.912Z,1009.45
2018-05-29T06:49:32.913Z,1009.49
2018-05-29T06:50:32.915Z,1009.47
2018-05-29T06:51:32.917Z,1009.48
2018-05-29T06:52:32.958Z,1009.49
2018-05-29T06:53:32.916Z,1009.50
2018-05-29T06:54:32.918Z,1009.51
2018-05-29T06:55:32.919Z,1009.52
2018-05-29T06:56:32.919Z,1009.53
2018-05-29T06:57:32.922Z,1009.45
2018-05-29T06:58:32.942Z,1009.44
2018-05-29T06:59:32.925Z,1009.32
2018-05-29T07:00:32.923Z,1009.31
2018-05-29T07:01:32.926Z,1009.45
2018-05-29T07:02:32.928Z,1009.32
2018-05-29T07:03:32.930Z,1009.42
2018-05-29T07:04:32.932Z,1009.34
2018-05-29T07:05:32.947Z,1009.45
2018-05-29T07:06:32.934Z,1009.43
2018-05-29T07:07:32.935Z,1009.41
2018-05-29T07:08:32.937Z,1009.33
2018-05-29T07:09:32.939Z,1009.48
2018-05-29T07:10:32.945Z,1009.46
2018-05-29T07:11:32.939Z,1009.43
2018-05-29T07:12:32.946Z,1009.46
2018-05-29T07:13:32.940Z,1009.46
2018-05-29T07:14:33.005Z,1009.44
2018-05-29T07:15:32.940Z,1009.40
2018-05-29T07:16:32.941Z,1009.36
2018-05-29T07:17:32.952Z,1009.38
2018-05-29T07:18:32.944Z,1009.33
2018-05-29T07:19:32.945Z,1009.29
2018-05-29T07:20:32.952Z,1009.25
2018-05-29T07:21:32.948Z,1009.19
2018-05-29T07:22:32.949Z,1009.36
2018-05-29T07:23:32.951Z,1009.11
2018-05-29T07:24:32.953Z,1009.02
2018-05-29T07:25:32.954Z,1009.04
2018-05-29T07:26:32.956Z,1008.98
2018-05-29T07:27:32.959Z,1008.94
2018-05-29T07:28:32.959Z,1008.91
2018-05-29T07:29:32.961Z,1008.92
2018-05-29T07:30:32.968Z,1008.93
2018-05-29T07:31:32.964Z,1008.88
2018-05-29T07:32:32.964Z,1008.89
2018-05-29T07:33:32.967Z,1008.85
2018-05-29T07:34:32.966Z,1008.81
2018-05-29T07:35:32.970Z,1008.81
2018-05-29T07:36:32.967Z,1008.81
2018-05-29T07:37:32.970Z,1008.80
2018-05-29T07:38:32.965Z,1008.78
2018-05-29T07:39:33.024Z,1008.84
2018-05-29T07:40:32.975Z,1008.76
2018-05-29T07:41:32.964Z,1008.78
2018-05-29T07:42:32.964Z,1008.75
2018-05-29T07:43:32.962Z,1008.74
2018-05-29T07:44:32.966Z,1008.87
2018-05-29T07:45:32.959Z,1008.76
2018-05-29T07:46:32.956Z,1008.84
2018-05-29T07:47:32.963Z,1008.76
2018-05-29T07:48:32.953Z,1008.78
2018-05-29T07:49:32.952Z,1008.70
2018-05-29T07:50:32.948Z,1008.70
2018-05-29T07:51:32.948Z,1008.79
2018-05-29T07:52:32.944Z,1008.68
2018-05-29T07:53:32.942Z,1008.79
2018-05-29T07:54:32.940Z,1008.82
2018-05-29T07:55:32.937Z,1008.79
2018-05-29T07:56:32.936Z,1008.84
2018-05-29T07:57:32.930Z,1008.87
2018-05-29T07:58:32.929Z,1008.64
2018-05-29T07:59:32.926Z,1008.69
2018-05-29T08:00:32.923Z,1008.59
2018-05-29T08:01:32.925Z,1008.82
2018-05-29T08:02:32.917Z,1008.66
2018-05-29T08:03:32.914Z,1008.66
2018-05-29T08:04:32.916Z,1008.66
2018-05-29T08:05:32.908Z,1008.67
2018-05-29T08:06:32.913Z,1008.61
2018-05-29T08:07:32.903Z,1008.62
2018-05-29T08:08:32.904Z,1008.65
2018-05-29T08:09:32.904Z,1008.55
2018-05-29T08:10:32.910Z,1008.60
2018-05-29T08:11:32.893Z,1008.57
2018-05-29T08:12:32.887Z,1008.52
2018-05-29T08:13:32.891Z,1008.52
2018-05-29T08:14:32.878Z,1008.51
2018-05-29T08:15:32.876Z,1008.54
2018-05-29T08:16:32.879Z,1008.52
2018-05-29T08:17:32.877Z,1008.45
2018-05-29T08:18:32.887Z,1008.47
2018-05-29T08:19:32.860Z,1008.46
2018-05-29T08:20:32.857Z,1008.45
2018-05-29T08:21:32.853Z,1008.39
2018-05-29T08:22:32.855Z,1008.40
2018-05-29T08:23:32.848Z,1008.40
2018-05-29T08:24:32.887Z,1008.43
2018-05-29T08:25:32.836Z,1008.41
2018-05-29T08:26:32.831Z,1008.39
2018-05-29T08:27:32.832Z,1008.39
2018-05-29T08:28:32.823Z,1008.39
2018-05-29T08:29:32.820Z,1008.40
2018-05-29T08:30:32.815Z,1008.37
2018-05-29T08:31:32.812Z,1008.41
2018-05-29T08:32:32.813Z,1008.34
2018-05-29T08:33:32.808Z,1008.31
2018-05-29T08:34:32.797Z,1008.37
2018-05-29T08:36:16.928Z,1008.39
2018-05-29T08:37:17.932Z,1008.43
2018-05-29T08:38:16.916Z,1008.40
2018-05-29T08:40:25.998Z,1008.39
2018-05-29T08:41:25.991Z,1008.23
2018-05-29T08:42:25.977Z,1008.27
2018-05-29T08:43:25.982Z,1008.26
2018-05-29T08:44:25.969Z,1008.18
2018-05-29T08:45:25.964Z,1008.22
2018-05-29T08:46:25.964Z,1008.18
2018-05-29T08:47:25.964Z,1008.17
2018-05-29T08:48:25.950Z,1008.16
2018-05-29T08:49:25.943Z,1008.15
2018-05-29T08:50:25.938Z,1008.15
2018-05-29T08:51:26.950Z,1008.15
2018-05-29T08:52:25.941Z,1008.09
2018-05-29T08:53:25.942Z,1008.20
2018-05-29T09:00:19.586Z,1008.14
2018-05-29T09:01:19.572Z,1008.08
2018-05-29T09:02:19.569Z,1008.00
2018-05-29T09:03:19.565Z,1008.13
2018-05-29T09:04:19.571Z,1007.99
2018-05-29T09:05:19.565Z,1008.01
2018-05-29T09:06:19.553Z,1008.00
2018-05-29T09:07:19.550Z,1008.07
2018-05-29T09:08:19.547Z,1008.32
2018-05-29T09:09:19.547Z,1008.44
2018-05-29T09:10:22.569Z,1008.08
2018-05-29T09:11:20.958Z,1007.84
2018-05-29T09:14:37.846Z,1007.89
2018-05-29T09:15:37.844Z,1008.12
2018-05-29T09:16:37.843Z,1008.12
2018-05-29T09:17:37.839Z,1008.29
2018-05-29T09:18:37.846Z,1008.30
2018-05-29T09:19:37.839Z,1008.25
2018-05-29T09:20:37.847Z,1007.87
2018-05-29T09:21:37.835Z,1007.81
2018-05-29T09:22:37.842Z,1007.87
2018-05-29T09:23:37.835Z,1007.89
2018-05-29T09:24:37.834Z,1007.87
2018-05-29T09:25:37.832Z,1007.86
2018-05-29T09:26:37.836Z,1007.83
2018-05-29T09:27:37.831Z,1007.75
2018-05-29T09:28:37.836Z,1007.73
2018-05-29T09:29:37.842Z,1007.73
2018-05-29T09:30:37.830Z,1008.11
2018-05-29T09:31:37.837Z,1007.88
2018-05-29T09:32:37.833Z,1007.77
2018-05-29T09:33:37.830Z,1007.76
2018-05-29T09:34:37.828Z,1008.12
2018-05-29T09:35:37.830Z,1007.69
2018-05-29T09:37:39.334Z,1007.66
2018-05-29T09:38:39.331Z,1007.95
2018-05-29T09:39:39.342Z,1007.76
2018-05-29T09:40:39.333Z,1007.78
2018-05-29T09:41:39.344Z,1007.92
2018-05-29T09:42:39.337Z,1007.85
2018-05-29T09:43:39.342Z,1007.76
2018-05-29T09:44:39.383Z,1007.90
2018-05-29T09:45:39.341Z,1007.84
2018-05-29T09:46:39.353Z,1007.92
2018-05-29T09:47:39.344Z,1007.88
2018-05-29T09:48:39.345Z,1007.82
2018-05-29T09:49:39.347Z,1007.63
2018-05-29T09:50:39.353Z,1007.63
2018-05-29T09:51:39.353Z,1007.69
2018-05-29T09:52:39.370Z,1007.74
2018-05-29T09:53:39.355Z,1007.73
2018-05-29T09:54:39.355Z,1007.65
2018-05-29T09:55:39.365Z,1007.87
2018-05-29T09:56:39.358Z,1007.66
2018-05-29T09:57:39.359Z,1007.69
2018-05-29T09:58:39.363Z,1007.82
2018-05-29T09:59:39.366Z,1007.63
2018-05-29T10:00:39.364Z,1007.77
2018-05-29T10:01:39.361Z,1007.60
2018-05-29T10:02:39.376Z,1007.76
2018-05-29T10:03:39.365Z,1007.66
2018-05-29T10:04:39.366Z,1007.61
2018-05-29T10:05:39.367Z,1007.71
2018-05-29T10:06:39.374Z,1007.70
2018-05-29T10:07:39.370Z,1007.67
2018-05-29T10:08:39.372Z,1007.56
2018-05-29T10:09:39.373Z,1007.49
2018-05-29T10:10:39.371Z,1007.61
2018-05-29T10:11:39.381Z,1007.63
2018-05-29T10:12:39.381Z,1007.63
2018-05-29T10:13:39.379Z,1007.51
2018-05-29T10:14:42.821Z,1007.49
2018-05-29T10:15:39.389Z,1007.54
2018-05-29T10:16:39.387Z,1007.52
2018-05-29T10:17:39.424Z,1007.50
2018-05-29T10:18:39.390Z,1007.45
2018-05-29T10:19:39.404Z,1007.45
2018-05-29T10:20:39.400Z,1007.45
2018-05-29T10:21:39.408Z,1007.46
2018-05-29T10:22:39.410Z,1007.39
2018-05-29T10:23:39.417Z,1007.38
2018-05-29T10:24:39.435Z,1007.34
2018-05-29T10:25:39.425Z,1007.34
2018-05-29T10:26:39.427Z,1007.30
2018-05-29T10:27:39.434Z,1007.23
2018-05-29T10:28:39.439Z,1007.17
2018-05-29T10:29:39.441Z,1007.07
2018-05-29T10:30:39.462Z,1007.07
2018-05-29T10:31:39.451Z,1007.05
2018-05-29T10:32:39.460Z,1007.05
2018-05-29T10:33:39.462Z,1007.00
2018-05-29T10:34:39.471Z,1006.97
2018-05-29T10:35:39.476Z,1007.00
2018-05-29T10:36:39.489Z,1006.97
2018-05-29T10:37:39.488Z,1006.95
2018-05-29T10:38:39.505Z,1006.88
2018-05-29T10:39:39.497Z,1006.99
2018-05-29T10:40:39.521Z,1006.92
2018-05-29T10:41:39.515Z,1006.88
2018-05-29T10:42:39.518Z,1006.89
2018-05-29T10:43:39.525Z,1006.86
2018-05-29T10:44:39.531Z,1006.85
2018-05-29T10:45:39.544Z,1006.78
2018-05-29T10:46:39.553Z,1006.90
2018-05-29T10:47:39.560Z,1006.80
2018-05-29T10:48:39.560Z,1006.80
2018-05-29T10:49:39.567Z,1006.74
2018-05-29T10:50:39.574Z,1006.74
2018-05-29T10:51:39.588Z,1006.77
2018-05-29T10:52:39.595Z,1006.73
2018-05-29T10:53:39.595Z,1006.64
2018-05-29T10:54:39.603Z,1006.66
2018-05-29T10:55:39.609Z,1006.71
2018-05-29T10:56:39.617Z,1006.67
2018-05-29T10:57:39.625Z,1006.67
2018-05-29T10:58:39.644Z,1006.62
2018-05-29T10:59:39.636Z,1006.62
2018-05-29T11:00:39.647Z,1006.64
2018-05-29T11:01:39.653Z,1006.62
2018-05-29T11:02:39.661Z,1006.64
2018-05-29T11:03:39.667Z,1006.69
2018-05-29T11:04:39.674Z,1006.74
2018-05-29T11:05:39.684Z,1006.67
2018-05-29T11:06:39.696Z,1006.75
2018-05-29T11:07:39.712Z,1006.77
2018-05-29T11:08:39.710Z,1006.82
2018-05-29T11:09:39.712Z,1006.77
2018-05-29T11:10:39.727Z,1006.82
2018-05-29T11:11:39.725Z,1006.90
2018-05-29T11:12:39.735Z,1006.88
2018-05-29T11:13:39.741Z,1006.87
2018-05-29T11:14:39.748Z,1006.97
2018-05-29T11:15:39.756Z,1007.09
2018-05-29T11:16:39.763Z,1007.12
2018-05-29T11:17:39.772Z,1007.14
2018-05-29T11:18:39.780Z,1007.21
2018-05-29T11:19:39.792Z,1007.24
2018-05-29T11:20:39.792Z,1007.22
2018-05-29T11:21:39.804Z,1007.33
2018-05-29T11:22:39.811Z,1007.35
2018-05-29T11:23:39.818Z,1007.41
2018-05-29T11:24:39.826Z,1007.42
2018-05-29T11:25:39.835Z,1007.46
2018-05-29T11:26:39.840Z,1007.43
2018-05-29T11:27:39.849Z,1007.45
2018-05-29T11:28:39.857Z,1007.51
2018-05-29T11:29:39.871Z,1007.56
2018-05-29T11:30:39.867Z,1007.65
2018-05-29T11:31:39.876Z,1007.77
2018-05-29T11:32:39.891Z,1007.81
2018-05-29T11:33:39.891Z,1007.99
2018-05-29T11:34:39.895Z,1007.97
2018-05-29T11:35:39.910Z,1007.96
2018-05-29T11:36:39.907Z,1008.09
2018-05-29T11:37:39.914Z,1007.96
2018-05-29T11:38:39.971Z,1007.84
2018-05-29T11:39:39.925Z,1007.84
2018-05-29T11:40:39.931Z,1007.82
2018-05-29T11:41:39.938Z,1007.58
2018-05-29T11:42:39.940Z,1007.10
2018-05-29T11:43:39.948Z,1006.86
2018-05-29T11:44:39.952Z,1006.81
2018-05-29T11:45:39.956Z,1006.73
2018-05-29T11:46:39.962Z,1006.70
2018-05-29T11:47:39.969Z,1006.68
2018-05-29T11:48:40.033Z,1006.67
2018-05-29T11:49:39.970Z,1006.63
2018-05-29T11:50:39.983Z,1006.63
2018-05-29T11:51:39.987Z,1006.61
2018-05-29T11:52:39.978Z,1006.57
2018-05-29T11:53:39.986Z,1006.55
2018-05-29T11:54:39.981Z,1006.63
2018-05-29T11:55:39.991Z,1006.55
2018-05-29T11:56:39.984Z,1006.52
2018-05-29T11:57:39.996Z,1006.45
2018-05-29T11:58:39.995Z,1006.50
2018-05-29T11:59:39.987Z,1006.48
2018-05-29T12:00:40.091Z,1006.53
2018-05-29T12:01:40.003Z,1006.51
2018-05-29T12:02:39.992Z,1006.54
2018-05-29T12:03:39.994Z,1006.57
2018-05-29T12:04:39.987Z,1006.47
2018-05-29T12:05:39.987Z,1006.42
2018-05-29T12:06:39.989Z,1006.40
2018-05-29T12:07:40.043Z,1006.39
2018-05-29T12:08:39.985Z,1006.40
2018-05-29T12:09:39.984Z,1006.39
2018-05-29T12:10:39.983Z,1006.34
2018-05-29T12:11:39.980Z,1006.35
2018-05-29T12:12:39.989Z,1006.28
2018-05-29T12:13:39.979Z,1006.32
2018-05-29T12:14:39.976Z,1006.36
2018-05-29T12:15:39.974Z,1006.28
2018-05-29T12:16:39.983Z,1006.24
2018-05-29T12:17:39.973Z,1006.19
2018-05-29T12:18:39.969Z,1006.23